Time;durP1;ratioP1;P1;durP2;ratioP2;P2;SDS_P1;SDS_P2;PMS_P1;PMS_P2;Temp;Humidity;BMP_temperature;BMP_pressure;BME280_temperature;BME280_humidity;BME280_pressure;Samples;Min_cycle;Max_cycle;Signal;HPM_P1;HPM_P2
2023/08/23 00:00:51;;;;;;;716.67;649.23;;;;;;;;;;5086584;28;20253;-60
2023/08/23 00:03:16;;;;;;;726.97;661.00;;;;;;;;;;5084866;28;20593;-61
2023/08/23 00:05:42;;;;;;;718.97;652.43;;;;;;;;;;5084471;28;20062;-57
2023/08/23 00:08:07;;;;;;;731.58;664.30;;;;;;;;;;5083119;28;20812;-61
2023/08/23 00:10:33;;;;;;;711.00;643.70;;;;;;;;;;5086554;28;20024;-57
2023/08/23 00:12:58;;;;;;;724.73;657.30;;;;;;;;;;5081000;28;20676;-58
2023/08/23 00:15:23;;;;;;;719.00;651.27;;;;;;;;;;5086533;28;20268;-61
2023/08/23 00:17:48;;;;;;;725.13;658.80;;;;;;;;;;5084533;28;20260;-61
2023/08/23 00:20:14;;;;;;;725.78;659.25;;;;;;;;;;5100763;28;20035;-59
2023/08/23 00:22:39;;;;;;;727.75;660.83;;;;;;;;;;5084137;28;20416;-61
2023/08/23 00:25:04;;;;;;;718.05;650.42;;;;;;;;;;5086359;28;20112;-61
2023/08/23 00:27:30;;;;;;;724.00;656.90;;;;;;;;;;5079569;28;20029;-57
2023/08/23 00:29:55;;;;;;;717.37;651.10;;;;;;;;;;5085474;28;20031;-57
2023/08/23 00:32:20;;;;;;;724.90;658.90;;;;;;;;;;5079978;28;20322;-61
2023/08/23 00:34:45;;;;;;;725.42;658.70;;;;;;;;;;5079620;28;20261;-59
2023/08/23 00:37:11;;;;;;;722.70;656.17;;;;;;;;;;5082350;28;20117;-61
2023/08/23 00:39:36;;;;;;;701.67;637.07;;;;;;;;;;5083876;28;20264;-60
2023/08/23 00:42:01;;;;;;;719.87;653.80;;;;;;;;;;5084564;28;20637;-62
2023/08/23 00:44:26;;;;;;;720.00;653.93;;;;;;;;;;5083263;28;20261;-61
2023/08/23 00:46:52;;;;;;;716.70;650.45;;;;;;;;;;5083652;28;20746;-59
2023/08/23 00:49:17;;;;;;;723.78;656.95;;;;;;;;;;5085321;28;20030;-61
2023/08/23 00:51:43;;;;;;;705.70;638.78;;;;;;;;;;5083410;28;20052;-58
2023/08/23 00:54:09;;;;;;;715.70;647.72;;;;;;;;;;5084532;28;20025;-61
2023/08/23 00:56:35;;;;;;;718.55;650.55;;;;;;;;;;5083695;28;20470;-55
2023/08/23 00:59:00;;;;;;;723.97;657.55;;;;;;;;;;5083655;28;20426;-61
2023/08/23 01:01:25;;;;;;;719.85;653.08;;;;;;;;;;5083163;28;20036;-61
2023/08/23 01:03:51;;;;;;;711.00;642.83;;;;;;;;;;5085071;28;20267;-55
2023/08/23 01:06:16;;;;;;;720.17;653.23;;;;;;;;;;5083010;28;20069;-59
2023/08/23 01:08:44;;;;;;;723.20;654.90;;;;;;;;;;5085325;28;20279;-61
2023/08/23 01:11:12;;;;;;;706.85;638.67;;;;;;;;;;5083468;28;20273;-59
2023/08/23 01:13:45;;;;;;;701.90;636.65;;;;;;;;;;5084547;28;20578;-57
2023/08/23 01:16:11;;;;;;;694.65;629.08;;;;;;;;;;5084648;28;20024;-58
2023/08/23 01:18:37;;;;;;;693.65;628.25;;;;;;;;;;5084863;28;20355;-61
2023/08/23 01:21:02;;;;;;;705.90;640.08;;;;;;;;;;5084855;28;20035;-60
2023/08/23 01:23:28;;;;;;;712.92;646.55;;;;;;;;;;5083107;28;20089;-61
2023/08/23 01:25:54;;;;;;;708.95;641.75;;;;;;;;;;5085100;28;20034;-54
2023/08/23 01:28:20;;;;;;;712.45;645.53;;;;;;;;;;5081732;28;20036;-59
2023/08/23 01:30:46;;;;;;;717.20;650.97;;;;;;;;;;5085237;28;20027;-58
2023/08/23 01:33:17;;;;;;;684.50;617.75;;;;;;;;;;5082898;28;20027;-59
2023/08/23 01:35:48;;;;;;;706.50;640.10;;;;;;;;;;5084912;28;20032;-61
2023/08/23 01:38:15;;;;;;;701.38;634.60;;;;;;;;;;5082853;28;20415;-59
2023/08/23 01:40:41;;;;;;;705.92;639.80;;;;;;;;;;5081755;28;20501;-61
2023/08/23 01:43:06;;;;;;;686.22;621.63;;;;;;;;;;5082814;28;20024;-61
2023/08/23 01:45:31;;;;;;;707.42;640.67;;;;;;;;;;5084615;28;20027;-61
2023/08/23 01:47:57;;;;;;;707.15;640.78;;;;;;;;;;5080687;28;20052;-59
2023/08/23 01:50:22;;;;;;;706.97;640.57;;;;;;;;;;5083494;28;20028;-60
2023/08/23 01:52:47;;;;;;;698.10;630.47;;;;;;;;;;5083025;28;20293;-61
2023/08/23 01:55:14;;;;;;;705.05;637.72;;;;;;;;;;5085206;28;20249;-54
2023/08/23 01:57:41;;;;;;;686.78;620.00;;;;;;;;;;5082637;28;20039;-60
2023/08/23 02:00:07;;;;;;;683.75;616.60;;;;;;;;;;5083569;28;20472;-61
2023/08/23 02:02:32;;;;;;;692.60;625.85;;;;;;;;;;5082053;28;20032;-59
2023/08/23 02:04:57;;;;;;;693.35;627.05;;;;;;;;;;5082504;28;20032;-62
2023/08/23 02:07:23;;;;;;;680.08;613.63;;;;;;;;;;5082455;28;20036;-60
2023/08/23 02:09:48;;;;;;;681.87;614.20;;;;;;;;;;5084575;28;20065;-56
2023/08/23 02:12:13;;;;;;;676.57;610.23;;;;;;;;;;5080253;28;20259;-59
2023/08/23 02:14:38;;;;;;;694.67;628.73;;;;;;;;;;5083617;28;20768;-61
2023/08/23 02:17:04;;;;;;;682.92;616.00;;;;;;;;;;5082932;28;20317;-55
2023/08/23 02:19:29;;;;;;;681.30;614.03;;;;;;;;;;5084626;28;20544;-58
2023/08/23 02:21:54;;;;;;;676.57;610.67;;;;;;;;;;5082681;28;20113;-61
2023/08/23 02:24:19;;;;;;;689.55;622.97;;;;;;;;;;5083721;28;20713;-61
2023/08/23 02:26:45;;;;;;;696.95;629.78;;;;;;;;;;5082334;28;20024;-55
2023/08/23 02:29:10;;;;;;;692.38;626.10;;;;;;;;;;5081075;28;20122;-58
2023/08/23 02:31:35;;;;;;;688.40;622.50;;;;;;;;;;5082060;28;20020;-62
2023/08/23 02:34:00;;;;;;;699.10;633.23;;;;;;;;;;5083385;28;20257;-61
2023/08/23 02:36:26;;;;;;;688.20;623.10;;;;;;;;;;5085158;28;21108;-57
2023/08/23 02:38:51;;;;;;;679.75;614.30;;;;;;;;;;5089628;28;20327;-61
2023/08/23 02:41:16;;;;;;;674.23;608.83;;;;;;;;;;5087755;28;20039;-60
2023/08/23 02:43:43;;;;;;;673.60;608.60;;;;;;;;;;5086890;28;20642;-62
2023/08/23 02:46:08;;;;;;;693.15;629.58;;;;;;;;;;5086388;28;20095;-56
2023/08/23 02:48:33;;;;;;;683.17;620.57;;;;;;;;;;5087965;28;20039;-60
2023/08/23 02:50:59;;;;;;;689.90;625.77;;;;;;;;;;5087884;28;20310;-62
2023/08/23 02:53:25;;;;;;;682.28;618.88;;;;;;;;;;5086811;28;20293;-57
2023/08/23 02:55:50;;;;;;;692.45;628.50;;;;;;;;;;5087890;28;20115;-60
2023/08/23 02:58:15;;;;;;;707.63;642.35;;;;;;;;;;5086133;28;20032;-61
2023/08/23 03:00:41;;;;;;;707.97;643.30;;;;;;;;;;5087180;28;20028;-60
2023/08/23 03:03:06;;;;;;;701.70;637.13;;;;;;;;;;5084585;28;20811;-59
2023/08/23 03:05:31;;;;;;;690.40;626.47;;;;;;;;;;5086300;28;20348;-61
2023/08/23 03:07:56;;;;;;;668.13;605.67;;;;;;;;;;5084629;28;20370;-61
2023/08/23 03:10:22;;;;;;;687.65;623.58;;;;;;;;;;5088392;28;20693;-57
2023/08/23 03:12:47;;;;;;;689.83;625.60;;;;;;;;;;5086921;28;20533;-57
2023/08/23 03:15:12;;;;;;;699.07;633.23;;;;;;;;;;5087931;28;20236;-61
2023/08/23 03:17:38;;;;;;;698.63;633.72;;;;;;;;;;5086647;28;20777;-61
2023/08/23 03:20:03;;;;;;;693.57;629.67;;;;;;;;;;5100364;28;20090;-57
2023/08/23 03:22:29;;;;;;;691.47;625.60;;;;;;;;;;5085298;28;20265;-60
2023/08/23 03:24:54;;;;;;;679.33;613.83;;;;;;;;;;5088391;28;20511;-58
2023/08/23 03:27:20;;;;;;;696.55;632.20;;;;;;;;;;5085503;28;20040;-61
2023/08/23 03:29:48;;;;;;;707.60;642.58;;;;;;;;;;5086296;28;20032;-61
2023/08/23 03:32:14;;;;;;;709.35;642.78;;;;;;;;;;5084901;28;20365;-61
2023/08/23 03:34:39;;;;;;;701.75;636.10;;;;;;;;;;5085875;28;20027;-56
2023/08/23 03:37:04;;;;;;;662.00;599.20;;;;;;;;;;5085992;28;20032;-60
2023/08/23 03:39:29;;;;;;;697.33;633.03;;;;;;;;;;5086978;28;20646;-61
2023/08/23 03:41:55;;;;;;;703.73;637.80;;;;;;;;;;5084800;28;20268;-59
2023/08/23 03:44:20;;;;;;;699.03;633.70;;;;;;;;;;5084869;28;20245;-57
2023/08/23 03:46:45;;;;;;;705.63;639.77;;;;;;;;;;5082054;28;20017;-59
2023/08/23 03:49:10;;;;;;;698.97;633.50;;;;;;;;;;5086959;28;20255;-61
2023/08/23 03:51:36;;;;;;;696.40;632.20;;;;;;;;;;5084326;28;20757;-57
2023/08/23 03:54:01;;;;;;;687.73;623.90;;;;;;;;;;5084229;28;20044;-58
2023/08/23 03:56:26;;;;;;;694.27;629.20;;;;;;;;;;5083973;28;20349;-59
2023/08/23 03:58:53;;;;;;;694.90;630.53;;;;;;;;;;5085595;28;20634;-60
2023/08/23 04:01:19;;;;;;;697.38;632.92;;;;;;;;;;5085167;28;20024;-59
2023/08/23 04:03:44;;;;;;;687.05;623.60;;;;;;;;;;5086830;28;20107;-59
2023/08/23 04:06:09;;;;;;;694.57;630.80;;;;;;;;;;5080690;28;20151;-60
2023/08/23 04:08:34;;;;;;;693.63;629.40;;;;;;;;;;5086206;28;20629;-62
2023/08/23 04:11:00;;;;;;;676.65;614.03;;;;;;;;;;5086228;28;20252;-57
2023/08/23 04:13:25;;;;;;;671.45;609.53;;;;;;;;;;5084439;28;20452;-59
2023/08/23 04:15:50;;;;;;;678.45;617.28;;;;;;;;;;5085293;28;20078;-61
2023/08/23 04:18:16;;;;;;;692.63;629.00;;;;;;;;;;5085908;28;20070;-61
2023/08/23 04:20:41;;;;;;;694.87;630.57;;;;;;;;;;5100869;28;20557;-59
2023/08/23 04:23:06;;;;;;;693.38;628.85;;;;;;;;;;5084387;28;20314;-58
2023/08/23 04:25:31;;;;;;;687.42;624.35;;;;;;;;;;5085434;28;20019;-61
2023/08/23 04:27:57;;;;;;;690.07;627.80;;;;;;;;;;5082781;28;20032;-61
2023/08/23 04:30:22;;;;;;;693.72;631.00;;;;;;;;;;5086544;28;20241;-59
2023/08/23 04:32:47;;;;;;;683.97;618.50;;;;;;;;;;5082091;28;20023;-61
2023/08/23 04:35:13;;;;;;;671.78;608.03;;;;;;;;;;5086073;28;20377;-60
2023/08/23 04:37:38;;;;;;;680.30;615.70;;;;;;;;;;5085010;28;20032;-57
2023/08/23 04:40:04;;;;;;;34.73;14.07;;;;;;;;;;5085642;28;20052;-60
2023/08/23 04:42:30;;;;;;;28.55;13.57;;;;;;;;;;5081944;28;20283;-58
2023/08/23 04:44:56;;;;;;;74.70;17.92;;;;;;;;;;5079894;28;20052;-60
2023/08/23 04:47:21;;;;;;;34.33;13.50;;;;;;;;;;5082606;28;20028;-59
2023/08/23 04:49:46;;;;;;;46.27;14.47;;;;;;;;;;5085150;28;20260;-60
2023/08/23 04:52:11;;;;;;;28.77;13.00;;;;;;;;;;5083559;28;20659;-61
2023/08/23 04:54:37;;;;;;;17.83;11.52;;;;;;;;;;5083128;28;20274;-58
2023/08/23 04:57:04;;;;;;;22.70;11.33;;;;;;;;;;5083465;28;20032;-58
2023/08/23 04:59:29;;;;;;;13.68;10.43;;;;;;;;;;5077758;28;20262;-56
2023/08/23 05:01:54;;;;;;;19.23;11.57;;;;;;;;;;5070363;28;20034;-61
2023/08/23 05:04:22;;;;;;;15.70;10.97;;;;;;;;;;5083741;28;20032;-61
2023/08/23 05:06:47;;;;;;;15.88;10.25;;;;;;;;;;5098601;28;20304;-57
2023/08/23 05:09:13;;;;;;;20.08;10.68;;;;;;;;;;5085640;28;20043;-61
2023/08/23 05:11:38;;;;;;;14.10;9.93;;;;;;;;;;5081863;28;20039;-60
2023/08/23 05:14:05;;;;;;;12.73;9.37;;;;;;;;;;5085198;28;20350;-56
2023/08/23 05:16:30;;;;;;;13.43;10.05;;;;;;;;;;5080576;28;20344;-57
2023/08/23 05:18:55;;;;;;;16.10;9.47;;;;;;;;;;5083584;28;20177;-59
2023/08/23 05:21:20;;;;;;;15.20;8.70;;;;;;;;;;5082992;28;20016;-62
2023/08/23 05:23:46;;;;;;;10.83;8.30;;;;;;;;;;5084971;28;20606;-57
2023/08/23 05:26:11;;;;;;;18.33;8.73;;;;;;;;;;5084319;28;20323;-57
2023/08/23 05:28:36;;;;;;;14.10;8.23;;;;;;;;;;5084774;28;20039;-59
2023/08/23 05:31:02;;;;;;;11.53;8.53;;;;;;;;;;5084967;28;20026;-62
2023/08/23 05:33:28;;;;;;;13.98;8.95;;;;;;;;;;5082583;28;20498;-57
2023/08/23 05:35:53;;;;;;;41.72;11.20;;;;;;;;;;5082732;28;20024;-61
2023/08/23 05:38:20;;;;;;;23.80;10.20;;;;;;;;;;5082883;28;20468;-61
2023/08/23 05:40:45;;;;;;;42.80;11.82;;;;;;;;;;5082855;28;20024;-61
2023/08/23 05:43:11;;;;;;;17.88;10.38;;;;;;;;;;5083797;28;20020;-62
2023/08/23 05:45:36;;;;;;;22.97;10.17;;;;;;;;;;5096980;28;20433;-59
2023/08/23 05:48:01;;;;;;;12.57;9.13;;;;;;;;;;5083769;28;20316;-60
2023/08/23 05:50:27;;;;;;;13.77;8.60;;;;;;;;;;5084238;28;20441;-62
2023/08/23 05:52:52;;;;;;;17.17;8.60;;;;;;;;;;5084914;28;20380;-60
2023/08/23 05:55:18;;;;;;;16.85;9.40;;;;;;;;;;5084684;28;20043;-61
2023/08/23 05:57:43;;;;;;;13.45;8.40;;;;;;;;;;5088873;28;20068;-60
2023/08/23 06:00:12;;;;;;;17.77;9.73;;;;;;;;;;5073274;28;20552;-60
2023/08/23 06:02:37;;;;;;;;;;;;;;;;;;5082640;28;20877;-57
2023/08/23 06:05:03;;;;;;;12.63;8.98;;;;;;;;;;5077154;28;19916;-61
2023/08/23 06:07:28;;;;;;;27.65;10.48;;;;;;;;;;5067755;28;20046;-60
2023/08/23 06:09:54;;;;;;;15.20;8.95;;;;;;;;;;5068391;28;20086;-58
2023/08/23 06:12:19;;;;;;;22.00;9.97;;;;;;;;;;5070894;28;20050;-56
2023/08/23 06:14:44;;;;;;;18.33;8.02;;;;;;;;;;5080396;28;20454;-59
2023/08/23 06:17:10;;;;;;;18.17;8.32;;;;;;;;;;5077481;28;20023;-61
2023/08/23 06:19:35;;;;;;;20.73;9.90;;;;;;;;;;5102933;28;20117;-54
2023/08/23 06:22:00;;;;;;;17.90;8.60;;;;;;;;;;5086902;28;20022;-59
2023/08/23 06:24:25;;;;;;;14.77;7.97;;;;;;;;;;5078720;28;20366;-61
2023/08/23 06:26:51;;;;;;;11.17;8.37;;;;;;;;;;5084306;28;20257;-60
2023/08/23 06:29:19;;;;;;;11.07;7.40;;;;;;;;;;5079862;28;20035;-56
2023/08/23 06:31:44;;;;;;;10.23;7.78;;;;;;;;;;5076336;28;20387;-60
2023/08/23 06:34:10;;;;;;;12.83;7.23;;;;;;;;;;5080977;28;20411;-59
2023/08/23 06:36:35;;;;;;;7.47;6.63;;;;;;;;;;5077763;28;20024;-56
2023/08/23 06:39:00;;;;;;;13.37;7.60;;;;;;;;;;5080411;28;20742;-59
2023/08/23 06:41:25;;;;;;;10.17;6.40;;;;;;;;;;5077727;28;20038;-60
2023/08/23 06:43:57;;;;;;;7.90;6.57;;;;;;;;;;5078929;28;20024;-62
2023/08/23 06:46:23;;;;;;;16.25;7.18;;;;;;;;;;5066750;28;20231;-63
2023/08/23 06:48:48;;;;;;;8.50;6.80;;;;;;;;;;5084389;28;20156;-53
2023/08/23 06:51:13;;;;;;;7.43;6.30;;;;;;;;;;5071520;28;20466;-55
2023/08/23 06:53:38;;;;;;;9.75;7.07;;;;;;;;;;5087204;28;20055;-61
2023/08/23 06:56:07;;;;;;;10.43;6.57;;;;;;;;;;5086030;28;20027;-61
2023/08/23 06:58:32;;;;;;;8.23;6.63;;;;;;;;;;5075201;28;20035;-55
2023/08/23 07:00:57;;;;;;;11.50;6.60;;;;;;;;;;5083743;28;20020;-56
2023/08/23 07:03:23;;;;;;;14.87;6.40;;;;;;;;;;5086301;28;20414;-59
2023/08/23 07:05:48;;;;;;;6.63;5.90;;;;;;;;;;5080444;28;20361;-57
2023/08/23 07:08:13;;;;;;;8.23;5.70;;;;;;;;;;5072799;28;20595;-59
2023/08/23 07:10:38;;;;;;;8.27;5.83;;;;;;;;;;5085935;28;20035;-59
2023/08/23 07:13:04;;;;;;;9.90;5.60;;;;;;;;;;5082553;28;20033;-61
2023/08/23 07:15:29;;;;;;;6.00;5.37;;;;;;;;;;5094495;28;21276;-57
2023/08/23 07:17:55;;;;;;;8.87;6.17;;;;;;;;;;5079043;28;20032;-58
2023/08/23 07:20:20;;;;;;;6.35;5.72;;;;;;;;;;5077342;28;20019;-53
2023/08/23 07:22:45;;;;;;;6.88;5.47;;;;;;;;;;5078876;28;20016;-56
2023/08/23 07:25:10;;;;;;;10.57;5.97;;;;;;;;;;5080611;28;20481;-61
2023/08/23 07:27:36;;;;;;;23.47;6.20;;;;;;;;;;5085661;28;20028;-60
2023/08/23 07:30:03;;;;;;;10.07;6.05;;;;;;;;;;5087975;28;20265;-61
2023/08/23 07:32:30;;;;;;;10.30;5.88;;;;;;;;;;5085290;28;20035;-58
2023/08/23 07:34:56;;;;;;;12.73;5.78;;;;;;;;;;5087231;28;20045;-61
2023/08/23 07:37:21;;;;;;;6.07;5.47;;;;;;;;;;5101406;28;20118;-59
2023/08/23 07:39:46;;;;;;;10.23;5.53;;;;;;;;;;5079081;28;20027;-58
2023/08/23 07:42:12;;;;;;;18.43;6.53;;;;;;;;;;5086885;28;20453;-59
2023/08/23 07:44:37;;;;;;;11.65;6.40;;;;;;;;;;5082195;28;20040;-52
2023/08/23 07:47:02;;;;;;;10.50;6.20;;;;;;;;;;5084999;28;20112;-56
2023/08/23 07:49:27;;;;;;;10.60;6.40;;;;;;;;;;5082002;28;20019;-58
2023/08/23 07:51:53;;;;;;;9.90;6.50;;;;;;;;;;5080207;28;20539;-58
2023/08/23 07:54:18;;;;;;;12.40;6.27;;;;;;;;;;5079605;28;20713;-60
2023/08/23 07:56:43;;;;;;;8.37;6.07;;;;;;;;;;5073204;28;20162;-58
2023/08/23 07:59:08;;;;;;;7.57;5.57;;;;;;;;;;5076989;28;20029;-61
2023/08/23 08:01:34;;;;;;;9.70;5.47;;;;;;;;;;5081739;28;20024;-55
2023/08/23 08:03:59;;;;;;;14.03;5.40;;;;;;;;;;5081526;28;20535;-55
2023/08/23 08:06:24;;;;;;;7.77;5.03;;;;;;;;;;5076996;28;20055;-59
2023/08/23 08:08:50;;;;;;;7.40;5.23;;;;;;;;;;5077632;28;20059;-62
2023/08/23 08:11:15;;;;;;;5.27;4.80;;;;;;;;;;5075058;28;20069;-59
2023/08/23 08:13:41;;;;;;;11.07;5.22;;;;;;;;;;5083026;28;20197;-60
2023/08/23 08:16:10;;;;;;;6.00;5.30;;;;;;;;;;5077550;28;20059;-54
2023/08/23 08:18:36;;;;;;;9.27;5.30;;;;;;;;;;5081399;28;20015;-61
2023/08/23 08:21:01;;;;;;;12.43;5.57;;;;;;;;;;5084851;28;20365;-58
2023/08/23 08:23:26;;;;;;;6.77;5.07;;;;;;;;;;5081219;28;20040;-60
2023/08/23 08:25:52;;;;;;;7.30;5.63;;;;;;;;;;5084942;28;20016;-61
2023/08/23 08:28:17;;;;;;;6.87;4.80;;;;;;;;;;5081908;28;20083;-58
2023/08/23 08:30:42;;;;;;;6.53;4.83;;;;;;;;;;5070733;28;20479;-60
2023/08/23 08:33:07;;;;;;;13.47;5.17;;;;;;;;;;5078388;28;20024;-61
2023/08/23 08:35:33;;;;;;;6.10;4.70;;;;;;;;;;5079581;28;20098;-59
2023/08/23 08:37:58;;;;;;;5.20;4.70;;;;;;;;;;5079401;28;20044;-57
2023/08/23 08:40:23;;;;;;;8.77;5.53;;;;;;;;;;5085638;28;20028;-61
2023/08/23 08:42:49;;;;;;;7.78;5.43;;;;;;;;;;5078174;28;20050;-62
2023/08/23 08:45:14;;;;;;;25.60;14.85;;;;;;;;;;5079302;28;20020;-57
2023/08/23 08:47:41;;;;;;;9.55;5.65;;;;;;;;;;5071610;28;20059;-62
2023/08/23 08:50:07;;;;;;;7.93;5.53;;;;;;;;;;5074204;28;20036;-59
2023/08/23 08:52:32;;;;;;;8.10;5.25;;;;;;;;;;5078054;28;20487;-61
2023/08/23 08:54:58;;;;;;;9.03;5.23;;;;;;;;;;5082322;28;20028;-62
2023/08/23 08:57:25;;;;;;;10.65;5.40;;;;;;;;;;5077247;28;20030;-62
2023/08/23 08:59:51;;;;;;;21.87;6.97;;;;;;;;;;5084969;28;20866;-63
2023/08/23 09:02:18;;;;;;;8.13;4.57;;;;;;;;;;5084892;28;20335;-63
2023/08/23 09:04:46;;;;;;;8.55;5.68;;;;;;;;;;5077292;28;20042;-57
2023/08/23 09:07:12;;;;;;;6.15;5.55;;;;;;;;;;5083996;28;20043;-59
2023/08/23 09:09:37;;;;;;;9.93;5.72;;;;;;;;;;5078265;28;20023;-61
2023/08/23 09:12:02;;;;;;;6.37;5.70;;;;;;;;;;5084477;28;20097;-57
2023/08/23 09:14:28;;;;;;;6.07;5.20;;;;;;;;;;5085427;28;20024;-61
2023/08/23 09:16:53;;;;;;;7.80;5.40;;;;;;;;;;5082321;28;20341;-58
2023/08/23 09:19:18;;;;;;;11.27;5.70;;;;;;;;;;5078808;28;20020;-61
2023/08/23 09:21:50;;;;;;;8.80;5.37;;;;;;;;;;5084430;28;20065;-63
2023/08/23 09:24:15;;;;;;;8.55;5.25;;;;;;;;;;5085126;28;20469;-59
2023/08/23 09:26:41;;;;;;;5.70;5.20;;;;;;;;;;5080053;28;20040;-62
2023/08/23 09:29:06;;;;;;;13.37;5.70;;;;;;;;;;5080338;28;20334;-55
2023/08/23 09:31:31;;;;;;;9.57;5.15;;;;;;;;;;5080569;28;20084;-61
2023/08/23 09:33:58;;;;;;;14.93;5.30;;;;;;;;;;5080856;28;20058;-63
2023/08/23 09:36:31;;;;;;;7.25;4.88;;;;;;;;;;5076842;28;20428;-62
2023/08/23 09:38:59;;;;;;;10.18;5.43;;;;;;;;;;5065227;28;20024;-58
2023/08/23 09:41:24;;;;;;;10.45;5.55;;;;;;;;;;5065234;28;20055;-55
2023/08/23 09:43:52;;;;;;;6.07;5.22;;;;;;;;;;5068320;28;20565;-62
2023/08/23 09:46:19;;;;;;;8.00;5.68;;;;;;;;;;5084863;28;20016;-58
2023/08/23 09:48:45;;;;;;;10.35;6.53;;;;;;;;;;5085198;28;20035;-58
2023/08/23 09:51:11;;;;;;;6.75;5.47;;;;;;;;;;5085747;28;20089;-60
2023/08/23 09:53:38;;;;;;;6.15;5.22;;;;;;;;;;5083216;28;20409;-55
2023/08/23 09:56:04;;;;;;;6.97;5.53;;;;;;;;;;5085649;28;20051;-60
2023/08/23 09:58:29;;;;;;;14.32;6.05;;;;;;;;;;5083152;28;20102;-59
2023/08/23 10:00:55;;;;;;;7.57;5.30;;;;;;;;;;5085286;28;20501;-62
2023/08/23 10:03:20;;;;;;;10.77;6.10;;;;;;;;;;5074617;28;20035;-59
2023/08/23 10:05:46;;;;;;;10.25;5.57;;;;;;;;;;5065089;28;20256;-63
2023/08/23 10:08:12;;;;;;;11.07;6.47;;;;;;;;;;5076490;28;20028;-63
2023/08/23 10:10:39;;;;;;;6.22;5.30;;;;;;;;;;5083523;28;20073;-60
2023/08/23 10:13:05;;;;;;;11.25;5.63;;;;;;;;;;5072547;28;20028;-58
2023/08/23 10:15:32;;;;;;;10.82;5.25;;;;;;;;;;5083424;28;20022;-60
2023/08/23 10:18:01;;;;;;;7.83;5.37;;;;;;;;;;5082484;28;20028;-62
2023/08/23 10:20:27;;;;;;;8.02;5.20;;;;;;;;;;5084796;28;20341;-63
2023/08/23 10:22:56;;;;;;;7.93;5.53;;;;;;;;;;5083854;28;20058;-55
2023/08/23 10:25:21;;;;;;;8.95;5.25;;;;;;;;;;5085002;28;20024;-59
2023/08/23 10:27:48;;;;;;;13.50;5.65;;;;;;;;;;5080790;28;20393;-62
2023/08/23 10:30:31;;;;;;;56.42;39.00;;;;;;;;;;5082191;28;20039;-58
2023/08/23 10:33:13;;;;;;;10.52;4.93;;;;;;;;;;5083348;28;20049;-63
2023/08/23 10:35:39;;;;;;;7.82;4.80;;;;;;;;;;5079581;28;20469;-62
2023/08/23 10:38:05;;;;;;;6.70;4.50;;;;;;;;;;5081304;28;20115;-63
2023/08/23 10:40:31;;;;;;;6.78;4.90;;;;;;;;;;5082816;28;20145;-63
2023/08/23 10:42:57;;;;;;;21.33;11.55;;;;;;;;;;5084279;28;20024;-61
2023/08/23 10:45:22;;;;;;;8.52;4.68;;;;;;;;;;5077797;28;20036;-61
2023/08/23 10:47:51;;;;;;;8.20;5.20;;;;;;;;;;5076535;28;20043;-63
2023/08/23 10:50:17;;;;;;;6.28;4.82;;;;;;;;;;5084722;28;20264;-62
2023/08/23 10:52:42;;;;;;;8.75;4.93;;;;;;;;;;5084567;28;20057;-58
2023/08/23 10:55:07;;;;;;;11.63;5.30;;;;;;;;;;5080049;28;20428;-60
2023/08/23 10:57:33;;;;;;;7.28;4.38;;;;;;;;;;5080806;28;20865;-62
2023/08/23 10:59:58;;;;;;;9.45;4.85;;;;;;;;;;5083463;28;20774;-58
2023/08/23 11:02:24;;;;;;;22.33;5.87;;;;;;;;;;5081074;28;20077;-63
2023/08/23 11:04:49;;;;;;;9.40;4.47;;;;;;;;;;5083782;28;20480;-62
2023/08/23 11:07:14;;;;;;;8.20;4.63;;;;;;;;;;5077359;28;20032;-60
2023/08/23 11:09:40;;;;;;;5.27;4.50;;;;;;;;;;5080533;28;20036;-62
2023/08/23 11:12:06;;;;;;;7.32;5.18;;;;;;;;;;5088032;28;20241;-61
2023/08/23 11:14:31;;;;;;;5.78;4.35;;;;;;;;;;5068854;28;20028;-55
2023/08/23 11:16:56;;;;;;;6.07;4.50;;;;;;;;;;5076526;28;20023;-61
2023/08/23 11:19:22;;;;;;;5.07;4.37;;;;;;;;;;5078349;28;20369;-63
2023/08/23 11:21:47;;;;;;;7.83;4.17;;;;;;;;;;5076876;28;20040;-62
2023/08/23 11:24:13;;;;;;;4.97;4.07;;;;;;;;;;5069405;28;20016;-57
2023/08/23 11:26:38;;;;;;;6.03;4.55;;;;;;;;;;5065308;28;20345;-56
2023/08/23 11:29:04;;;;;;;6.30;4.72;;;;;;;;;;5066910;28;20047;-61
2023/08/23 11:31:31;;;;;;;8.45;5.00;;;;;;;;;;5069161;28;20024;-61
2023/08/23 11:33:57;;;;;;;11.15;5.40;;;;;;;;;;5075734;28;20162;-59
2023/08/23 11:36:22;;;;;;;6.10;4.60;;;;;;;;;;5069208;28;20059;-60
2023/08/23 11:38:48;;;;;;;7.47;5.30;;;;;;;;;;5076734;28;20104;-59
2023/08/23 11:41:13;;;;;;;9.70;5.15;;;;;;;;;;5076327;28;20335;-59
2023/08/23 11:43:44;;;;;;;8.45;5.07;;;;;;;;;;5075600;28;20088;-60
2023/08/23 11:46:10;;;;;;;5.72;5.10;;;;;;;;;;5078872;28;20848;-62
2023/08/23 11:48:36;;;;;;;7.80;4.90;;;;;;;;;;5068116;28;20147;-61
2023/08/23 11:51:02;;;;;;;9.43;4.63;;;;;;;;;;5082720;28;20115;-61
2023/08/23 11:53:27;;;;;;;5.63;4.80;;;;;;;;;;5082703;28;20056;-56
2023/08/23 11:55:54;;;;;;;5.63;4.60;;;;;;;;;;5081710;28;20405;-57
2023/08/23 11:58:19;;;;;;;10.38;5.20;;;;;;;;;;5081787;28;20163;-60
2023/08/23 12:00:47;;;;;;;15.17;5.33;;;;;;;;;;5082439;28;20158;-62
2023/08/23 12:03:12;;;;;;;6.70;5.00;;;;;;;;;;5083763;28;20180;-58
2023/08/23 12:05:37;;;;;;;10.50;5.00;;;;;;;;;;5081949;28;20484;-59
2023/08/23 12:08:03;;;;;;;7.53;4.70;;;;;;;;;;5081576;28;20040;-64
2023/08/23 12:10:29;;;;;;;7.90;5.03;;;;;;;;;;5082203;28;20457;-61
2023/08/23 12:12:54;;;;;;;8.50;4.95;;;;;;;;;;5078295;28;20012;-59
2023/08/23 12:15:19;;;;;;;10.20;5.50;;;;;;;;;;5070949;28;20505;-55
2023/08/23 12:17:44;;;;;;;14.83;5.27;;;;;;;;;;5087101;28;20115;-63
2023/08/23 12:20:11;;;;;;;4.80;4.33;;;;;;;;;;5082122;28;20032;-63
2023/08/23 12:22:37;;;;;;;6.28;4.80;;;;;;;;;;5081937;28;20051;-60
2023/08/23 12:25:02;;;;;;;9.40;5.03;;;;;;;;;;5080671;28;20024;-57
2023/08/23 12:27:28;;;;;;;7.47;4.70;;;;;;;;;;5071652;28;20039;-63
2023/08/23 12:29:53;;;;;;;7.77;5.17;;;;;;;;;;5076668;28;20056;-56
2023/08/23 12:32:18;;;;;;;6.57;5.00;;;;;;;;;;5084483;28;20102;-61
2023/08/23 12:34:44;;;;;;;10.80;4.90;;;;;;;;;;5085323;28;20031;-63
2023/08/23 12:37:09;;;;;;;5.15;3.97;;;;;;;;;;5073917;28;20113;-60
2023/08/23 12:39:35;;;;;;;5.23;4.40;;;;;;;;;;5076268;28;20062;-61
2023/08/23 12:42:00;;;;;;;10.80;4.73;;;;;;;;;;5076240;28;20257;-63
2023/08/23 12:44:25;;;;;;;6.80;5.10;;;;;;;;;;5077919;28;20228;-60
2023/08/23 12:46:51;;;;;;;6.75;5.35;;;;;;;;;;5069063;28;20109;-62
2023/08/23 12:49:17;;;;;;;9.23;5.10;;;;;;;;;;5083605;28;20169;-60
2023/08/23 12:51:43;;;;;;;9.32;5.28;;;;;;;;;;5080780;28;20089;-60
2023/08/23 12:54:08;;;;;;;9.38;5.28;;;;;;;;;;5081362;28;20043;-59
2023/08/23 12:56:34;;;;;;;8.75;5.05;;;;;;;;;;5068109;28;20466;-63
2023/08/23 12:58:59;;;;;;;12.38;5.45;;;;;;;;;;5074300;28;20031;-59
2023/08/23 13:01:25;;;;;;;6.75;4.72;;;;;;;;;;5075223;28;20083;-64
2023/08/23 13:03:50;;;;;;;9.13;4.90;;;;;;;;;;5077255;28;20024;-60
2023/08/23 13:06:15;;;;;;;8.47;4.90;;;;;;;;;;5080719;28;20158;-60
2023/08/23 13:08:41;;;;;;;14.10;4.93;;;;;;;;;;5079869;28;20036;-63
2023/08/23 13:11:06;;;;;;;10.70;5.30;;;;;;;;;;5080925;28;20111;-65
2023/08/23 13:13:32;;;;;;;9.55;4.80;;;;;;;;;;5079070;28;20023;-64
2023/08/23 13:15:57;;;;;;;7.88;4.90;;;;;;;;;;5082314;28;20036;-60
2023/08/23 13:18:22;;;;;;;13.10;5.30;;;;;;;;;;5078835;28;20375;-61
2023/08/23 13:20:48;;;;;;;9.40;4.80;;;;;;;;;;5084688;28;20104;-64
2023/08/23 13:23:13;;;;;;;9.23;4.93;;;;;;;;;;5084180;28;20117;-61
2023/08/23 13:25:39;;;;;;;5.75;4.50;;;;;;;;;;5080294;28;20453;-63
2023/08/23 13:28:04;;;;;;;5.20;4.50;;;;;;;;;;5073531;28;20032;-58
2023/08/23 13:30:30;;;;;;;10.48;4.40;;;;;;;;;;5065755;28;20248;-61
2023/08/23 13:32:56;;;;;;;7.93;4.68;;;;;;;;;;5082413;28;20028;-62
2023/08/23 13:35:21;;;;;;;6.15;4.80;;;;;;;;;;5077051;28;20090;-63
2023/08/23 13:37:47;;;;;;;8.73;5.47;;;;;;;;;;5078418;28;20058;-61
2023/08/23 13:40:12;;;;;;;7.35;5.07;;;;;;;;;;5084641;28;20016;-63
2023/08/23 13:42:38;;;;;;;7.35;5.75;;;;;;;;;;5077787;28;20028;-64
2023/08/23 13:45:04;;;;;;;10.60;5.45;;;;;;;;;;5075951;28;20028;-65
2023/08/23 13:47:29;;;;;;;8.32;5.45;;;;;;;;;;5082930;28;20725;-65
2023/08/23 13:49:55;;;;;;;7.07;5.78;;;;;;;;;;5095051;28;20055;-63
2023/08/23 13:52:21;;;;;;;11.63;6.13;;;;;;;;;;5080095;28;20052;-62
2023/08/23 13:54:46;;;;;;;8.35;4.97;;;;;;;;;;5093494;28;20111;-62
2023/08/23 13:57:12;;;;;;;9.35;5.57;;;;;;;;;;5099129;28;20040;-63
2023/08/23 13:59:37;;;;;;;7.15;5.82;;;;;;;;;;5091764;28;20027;-55
2023/08/23 14:02:04;;;;;;;6.45;4.63;;;;;;;;;;5092267;28;20043;-58
2023/08/23 14:04:32;;;;;;;8.60;5.30;;;;;;;;;;5097537;28;20020;-60
2023/08/23 14:06:57;;;;;;;;;;;;;;;;;;5077030;28;20043;-57
2023/08/23 14:09:22;;;;;;;10.70;5.70;;;;;;;;;;5095776;28;19915;-55
2023/08/23 14:11:54;;;;;;;8.17;5.63;;;;;;;;;;5094989;28;20031;-57